sensor_id;sensor_type;location;lat;lon;timestamp;pressure;altitude;pressure_sealevel;temperature;humidity
56912;BME280;42800;53.928;27.662;2023-02-13T00:00:17;99230.56;;;0.63;100.00
56912;BME280;42800;53.928;27.662;2023-02-13T00:02:43;99218.72;;;0.78;100.00
56912;BME280;42800;53.928;27.662;2023-02-13T00:05:11;99229.59;;;0.86;100.00
56912;BME280;42800;53.928;27.662;2023-02-13T00:07:37;99239.59;;;0.86;100.00
56912;BME280;42800;53.928;27.662;2023-02-13T00:10:04;99264.53;;;0.50;100.00
56912;BME280;42800;53.928;27.662;2023-02-13T00:12:30;99285.59;;;0.81;100.00
56912;BME280;42800;53.928;27.662;2023-02-13T00:14:56;99293.72;;;0.62;100.00
56912;BME280;42800;53.928;27.662;2023-02-13T00:17:23;99320.88;;;0.84;100.00
56912;BME280;42800;53.928;27.662;2023-02-13T00:19:50;99295.28;;;0.82;100.00
56912;BME280;42800;53.928;27.662;2023-02-13T00:22:17;99316.88;;;0.82;100.00
56912;BME280;42800;53.928;27.662;2023-02-13T00:24:43;99317.13;;;0.66;100.00
56912;BME280;42800;53.928;27.662;2023-02-13T00:27:09;99356.34;;;0.78;100.00
56912;BME280;42800;53.928;27.662;2023-02-13T00:29:36;99375.31;;;0.73;100.00
56912;BME280;42800;53.928;27.662;2023-02-13T00:32:02;99379.13;;;0.53;100.00
56912;BME280;42800;53.928;27.662;2023-02-13T00:34:28;99389.44;;;0.83;100.00
56912;BME280;42800;53.928;27.662;2023-02-13T00:36:54;99377.84;;;0.83;100.00
56912;BME280;42800;53.928;27.662;2023-02-13T00:39:21;99399.91;;;0.33;100.00
56912;BME280;42800;53.928;27.662;2023-02-13T00:41:47;99461.94;;;0.90;100.00
56912;BME280;42800;53.928;27.662;2023-02-13T00:44:14;99427.22;;;0.83;100.00
56912;BME280;42800;53.928;27.662;2023-02-13T00:46:40;99409.25;;;0.92;100.00
56912;BME280;42800;53.928;27.662;2023-02-13T00:49:06;99405.25;;;0.90;100.00
56912;BME280;42800;53.928;27.662;2023-02-13T00:51:32;99434.16;;;0.89;100.00
56912;BME280;42800;53.928;27.662;2023-02-13T00:53:58;99512.25;;;0.43;100.00
56912;BME280;42800;53.928;27.662;2023-02-13T00:56:26;99584.16;;;0.53;100.00
56912;BME280;42800;53.928;27.662;2023-02-13T00:58:53;99595.09;;;0.85;100.00
56912;BME280;42800;53.928;27.662;2023-02-13T01:01:19;99584.03;;;0.87;100.00
56912;BME280;42800;53.928;27.662;2023-02-13T01:03:45;99580.25;;;0.40;100.00
56912;BME280;42800;53.928;27.662;2023-02-13T01:06:12;99662.75;;;0.70;100.00
56912;BME280;42800;53.928;27.662;2023-02-13T01:08:39;99681.13;;;0.68;100.00
56912;BME280;42800;53.928;27.662;2023-02-13T01:11:05;99640.88;;;0.18;100.00
56912;BME280;42800;53.928;27.662;2023-02-13T01:13:32;99798.28;;;0.62;100.00
56912;BME280;42800;53.928;27.662;2023-02-13T01:15:59;99761.06;;;0.88;100.00
56912;BME280;42800;53.928;27.662;2023-02-13T01:18:25;99737.72;;;0.73;100.00
56912;BME280;42800;53.928;27.662;2023-02-13T01:20:56;99764.91;;;0.53;100.00
56912;BME280;42800;53.928;27.662;2023-02-13T01:23:23;99839.94;;;0.51;100.00
56912;BME280;42800;53.928;27.662;2023-02-13T01:25:49;99829.56;;;0.63;100.00
56912;BME280;42800;53.928;27.662;2023-02-13T01:28:16;99821.56;;;0.87;100.00
56912;BME280;42800;53.928;27.662;2023-02-13T01:30:43;99774.38;;;0.79;100.00
56912;BME280;42800;53.928;27.662;2023-02-13T01:33:09;99802.25;;;0.99;100.00
56912;BME280;42800;53.928;27.662;2023-02-13T01:35:38;99742.97;;;0.88;100.00
56912;BME280;42800;53.928;27.662;2023-02-13T01:38:04;99733.78;;;0.89;100.00
56912;BME280;42800;53.928;27.662;2023-02-13T01:40:30;99707.88;;;0.64;100.00
56912;BME280;42800;53.928;27.662;2023-02-13T01:42:56;99742.75;;;0.85;100.00
56912;BME280;42800;53.928;27.662;2023-02-13T01:45:25;99782.06;;;0.67;100.00
56912;BME280;42800;53.928;27.662;2023-02-13T01:47:55;99799.56;;;0.69;100.00
56912;BME280;42800;53.928;27.662;2023-02-13T01:50:25;99792.28;;;0.70;100.00
56912;BME280;42800;53.928;27.662;2023-02-13T01:52:58;99847.53;;;0.78;100.00
56912;BME280;42800;53.928;27.662;2023-02-13T01:55:26;99856.38;;;0.54;100.00
56912;BME280;42800;53.928;27.662;2023-02-13T01:57:57;99883.34;;;0.54;100.00
56912;BME280;42800;53.928;27.662;2023-02-13T02:00:27;99903.19;;;0.74;100.00
56912;BME280;42800;53.928;27.662;2023-02-13T02:02:57;99880.91;;;0.53;100.00
56912;BME280;42800;53.928;27.662;2023-02-13T02:05:26;99957.50;;;0.62;100.00
56912;BME280;42800;53.928;27.662;2023-02-13T02:07:54;99998.34;;;0.89;100.00
56912;BME280;42800;53.928;27.662;2023-02-13T02:10:23;99996.56;;;0.69;100.00
56912;BME280;42800;53.928;27.662;2023-02-13T02:12:53;99991.84;;;0.46;100.00
56912;BME280;42800;53.928;27.662;2023-02-13T02:15:24;100098.09;;;0.55;100.00
56912;BME280;42800;53.928;27.662;2023-02-13T02:17:50;100124.28;;;0.50;100.00
56912;BME280;42800;53.928;27.662;2023-02-13T02:20:25;100127.53;;;0.57;100.00
56912;BME280;42800;53.928;27.662;2023-02-13T02:32:42;100121.47;;;0.85;100.00
56912;BME280;42800;53.928;27.662;2023-02-13T02:35:21;100132.81;;;0.87;100.00
56912;BME280;42800;53.928;27.662;2023-02-13T02:38:01;100119.28;;;0.92;100.00
56912;BME280;42800;53.928;27.662;2023-02-13T02:40:36;100103.16;;;0.77;100.00
56912;BME280;42800;53.928;27.662;2023-02-13T02:43:27;100129.31;;;0.82;100.00
56912;BME280;42800;53.928;27.662;2023-02-13T02:46:03;100163.06;;;0.79;100.00
56912;BME280;42800;53.928;27.662;2023-02-13T02:48:38;100201.44;;;0.56;100.00
56912;BME280;42800;53.928;27.662;2023-02-13T02:51:29;100260.84;;;0.30;100.00
56912;BME280;42800;53.928;27.662;2023-02-13T02:54:03;100298.34;;;0.57;100.00
56912;BME280;42800;53.928;27.662;2023-02-13T02:56:58;100302.91;;;0.67;100.00
56912;BME280;42800;53.928;27.662;2023-02-13T02:59:27;100306.41;;;0.42;100.00
56912;BME280;42800;53.928;27.662;2023-02-13T03:02:14;100354.72;;;0.59;100.00
56912;BME280;42800;53.928;27.662;2023-02-13T03:05:00;100348.25;;;0.55;100.00
56912;BME280;42800;53.928;27.662;2023-02-13T03:07:45;100347.16;;;0.56;100.00
56912;BME280;42800;53.928;27.662;2023-02-13T03:10:24;100347.44;;;0.49;100.00
56912;BME280;42800;53.928;27.662;2023-02-13T03:13:14;100361.72;;;0.60;100.00
56912;BME280;42800;53.928;27.662;2023-02-13T03:15:49;100363.88;;;0.53;100.00
56912;BME280;42800;53.928;27.662;2023-02-13T03:18:37;100369.81;;;0.50;100.00
56912;BME280;42800;53.928;27.662;2023-02-13T03:21:27;100362.56;;;0.60;100.00
56912;BME280;42800;53.928;27.662;2023-02-13T03:24:20;100375.53;;;0.74;100.00
56912;BME280;42800;53.928;27.662;2023-02-13T03:26:55;100383.06;;;0.61;100.00
56912;BME280;42800;53.928;27.662;2023-02-13T03:29:36;100377.41;;;0.58;100.00
56912;BME280;42800;53.928;27.662;2023-02-13T03:32:27;100380.91;;;0.89;100.00
56912;BME280;42800;53.928;27.662;2023-02-13T03:35:03;100382.78;;;0.63;100.00
56912;BME280;42800;53.928;27.662;2023-02-13T03:37:53;100378.19;;;0.48;100.00
56912;BME280;42800;53.928;27.662;2023-02-13T03:40:27;100384.66;;;0.52;100.00
56912;BME280;42800;53.928;27.662;2023-02-13T03:43:00;100392.78;;;0.88;100.00
56912;BME280;42800;53.928;27.662;2023-02-13T03:45:31;100392.25;;;0.91;100.00
56912;BME280;42800;53.928;27.662;2023-02-13T03:48:24;100390.34;;;0.81;100.00
56912;BME280;42800;53.928;27.662;2023-02-13T03:51:13;100384.41;;;0.94;100.00
56912;BME280;42800;53.928;27.662;2023-02-13T03:53:45;100373.63;;;0.64;100.00
56912;BME280;42800;53.928;27.662;2023-02-13T03:56:13;100369.28;;;0.99;100.00
56912;BME280;42800;53.928;27.662;2023-02-13T03:59:01;100368.75;;;1.07;100.00
56912;BME280;42800;53.928;27.662;2023-02-13T04:01:44;100365.25;;;0.91;100.00
56912;BME280;42800;53.928;27.662;2023-02-13T04:04:18;100373.63;;;0.94;100.00
56912;BME280;42800;53.928;27.662;2023-02-13T04:06:49;100372.50;;;1.06;100.00
56912;BME280;42800;53.928;27.662;2023-02-13T04:09:17;100371.44;;;0.86;100.00
56912;BME280;42800;53.928;27.662;2023-02-13T04:11:49;100373.84;;;1.03;100.00
56912;BME280;42800;53.928;27.662;2023-02-13T04:14:20;100372.53;;;0.90;100.00
56912;BME280;42800;53.928;27.662;2023-02-13T04:16:51;100374.16;;;1.02;100.00
56912;BME280;42800;53.928;27.662;2023-02-13T04:19:21;100373.06;;;0.92;100.00
56912;BME280;42800;53.928;27.662;2023-02-13T04:21:54;100386.00;;;1.16;100.00
56912;BME280;42800;53.928;27.662;2023-02-13T04:24:22;100389.00;;;1.14;100.00
56912;BME280;42800;53.928;27.662;2023-02-13T04:26:49;100396.84;;;1.01;100.00
56912;BME280;42800;53.928;27.662;2023-02-13T04:29:15;100400.03;;;1.28;100.00
56912;BME280;42800;53.928;27.662;2023-02-13T04:31:41;100401.94;;;1.23;100.00
56912;BME280;42800;53.928;27.662;2023-02-13T04:34:07;100391.94;;;1.33;100.00
56912;BME280;42800;53.928;27.662;2023-02-13T04:36:33;100401.41;;;1.15;100.00
56912;BME280;42800;53.928;27.662;2023-02-13T04:39:00;100388.19;;;1.09;100.00
56912;BME280;42800;53.928;27.662;2023-02-13T04:41:27;100389.25;;;1.18;100.00
56912;BME280;42800;53.928;27.662;2023-02-13T04:43:53;100381.72;;;1.05;100.00
56912;BME280;42800;53.928;27.662;2023-02-13T04:46:19;100388.72;;;1.11;100.00
56912;BME280;42800;53.928;27.662;2023-02-13T04:48:45;100383.31;;;1.16;100.00
56912;BME280;42800;53.928;27.662;2023-02-13T04:51:11;100369.84;;;1.01;100.00
56912;BME280;42800;53.928;27.662;2023-02-13T04:53:38;100375.72;;;1.23;100.00
56912;BME280;42800;53.928;27.662;2023-02-13T04:56:04;100380.59;;;1.16;100.00
56912;BME280;42800;53.928;27.662;2023-02-13T04:58:31;100375.22;;;1.06;100.00
56912;BME280;42800;53.928;27.662;2023-02-13T05:00:58;100379.50;;;1.32;100.00
56912;BME280;42800;53.928;27.662;2023-02-13T05:03:24;100376.25;;;1.35;100.00
56912;BME280;42800;53.928;27.662;2023-02-13T05:05:50;100377.13;;;1.00;100.00
56912;BME280;42800;53.928;27.662;2023-02-13T05:08:16;100373.06;;;1.03;100.00
56912;BME280;42800;53.928;27.662;2023-02-13T05:10:43;100361.13;;;1.29;100.00
56912;BME280;42800;53.928;27.662;2023-02-13T05:13:09;100357.34;;;1.35;100.00
56912;BME280;42800;53.928;27.662;2023-02-13T05:15:36;100361.94;;;1.35;100.00
56912;BME280;42800;53.928;27.662;2023-02-13T05:18:02;100360.06;;;1.30;100.00
56912;BME280;42800;53.928;27.662;2023-02-13T05:20:28;100361.31;;;1.53;100.00
56912;BME280;42800;53.928;27.662;2023-02-13T05:22:54;100367.31;;;1.45;100.00
56912;BME280;42800;53.928;27.662;2023-02-13T05:25:40;100381.84;;;1.59;100.00
56912;BME280;42800;53.928;27.662;2023-02-13T05:28:07;100386.16;;;1.65;100.00
56912;BME280;42800;53.928;27.662;2023-02-13T05:30:54;100395.13;;;1.46;100.00
56912;BME280;42800;53.928;27.662;2023-02-13T05:33:21;100387.25;;;1.59;100.00
56912;BME280;42800;53.928;27.662;2023-02-13T05:35:47;100388.66;;;1.47;100.00
56912;BME280;42800;53.928;27.662;2023-02-13T05:38:13;100377.28;;;1.55;100.00
56912;BME280;42800;53.928;27.662;2023-02-13T05:40:40;100382.41;;;1.56;100.00
56912;BME280;42800;53.928;27.662;2023-02-13T05:43:06;100384.91;;;1.32;100.00
56912;BME280;42800;53.928;27.662;2023-02-13T05:45:32;100388.66;;;1.41;100.00
56912;BME280;42800;53.928;27.662;2023-02-13T05:47:59;100377.25;;;1.60;100.00
56912;BME280;42800;53.928;27.662;2023-02-13T05:50:25;100376.19;;;1.61;100.00
56912;BME280;42800;53.928;27.662;2023-02-13T05:52:52;100367.81;;;1.57;100.00
56912;BME280;42800;53.928;27.662;2023-02-13T05:55:18;100377.31;;;1.39;100.00
56912;BME280;42800;53.928;27.662;2023-02-13T05:57:44;100375.72;;;1.23;100.00
56912;BME280;42800;53.928;27.662;2023-02-13T06:00:12;100355.16;;;1.42;100.00
56912;BME280;42800;53.928;27.662;2023-02-13T06:02:38;100361.88;;;1.55;100.00
56912;BME280;42800;53.928;27.662;2023-02-13T06:05:05;100362.41;;;1.57;100.00
56912;BME280;42800;53.928;27.662;2023-02-13T06:07:32;100360.22;;;1.64;100.00
56912;BME280;42800;53.928;27.662;2023-02-13T06:09:58;100360.72;;;1.72;100.00
56912;BME280;42800;53.928;27.662;2023-02-13T06:12:24;100351.88;;;1.56;100.00
56912;BME280;42800;53.928;27.662;2023-02-13T06:14:50;100358.56;;;1.74;100.00
56912;BME280;42800;53.928;27.662;2023-02-13T06:17:16;100345.75;;;1.95;100.00
56912;BME280;42800;53.928;27.662;2023-02-13T06:19:43;100350.09;;;1.91;100.00
56912;BME280;42800;53.928;27.662;2023-02-13T06:22:10;100365.25;;;1.92;100.00
56912;BME280;42800;53.928;27.662;2023-02-13T06:24:36;100368.03;;;1.71;100.00
56912;BME280;42800;53.928;27.662;2023-02-13T06:27:02;100361.13;;;1.99;100.00
56912;BME280;42800;53.928;27.662;2023-02-13T06:29:28;100358.19;;;1.96;100.00
56912;BME280;42800;53.928;27.662;2023-02-13T06:31:55;100351.44;;;1.93;100.00
56912;BME280;42800;53.928;27.662;2023-02-13T06:34:22;100345.47;;;1.96;100.00
56912;BME280;42800;53.928;27.662;2023-02-13T06:36:48;100343.00;;;2.00;100.00
56912;BME280;42800;53.928;27.662;2023-02-13T06:39:15;100331.94;;;1.96;100.00
56912;BME280;42800;53.928;27.662;2023-02-13T06:41:41;100327.38;;;1.97;100.00
56912;BME280;42800;53.928;27.662;2023-02-13T06:44:07;100318.16;;;1.98;100.00
56912;BME280;42800;53.928;27.662;2023-02-13T06:46:33;100322.78;;;1.92;100.00
56912;BME280;42800;53.928;27.662;2023-02-13T06:49:00;100322.22;;;1.95;100.00
56912;BME280;42800;53.928;27.662;2023-02-13T06:51:26;100329.75;;;2.03;100.00
56912;BME280;42800;53.928;27.662;2023-02-13T06:53:52;100325.19;;;2.38;100.00
56912;BME280;42800;53.928;27.662;2023-02-13T06:56:19;100344.09;;;1.99;100.00
56912;BME280;42800;53.928;27.662;2023-02-13T06:58:45;100336.28;;;2.36;100.00
56912;BME280;42800;53.928;27.662;2023-02-13T07:01:11;100344.16;;;2.33;100.00
56912;BME280;42800;53.928;27.662;2023-02-13T07:03:37;100350.00;;;2.11;100.00
56912;BME280;42800;53.928;27.662;2023-02-13T07:06:04;100335.88;;;2.19;100.00
56912;BME280;42800;53.928;27.662;2023-02-13T07:08:30;100341.88;;;2.11;100.00
56912;BME280;42800;53.928;27.662;2023-02-13T07:10:56;100343.97;;;2.24;100.00
56912;BME280;42800;53.928;27.662;2023-02-13T07:13:23;100331.88;;;2.51;100.00
56912;BME280;42800;53.928;27.662;2023-02-13T07:15:50;100342.63;;;2.61;100.00
56912;BME280;42800;53.928;27.662;2023-02-13T07:18:16;100341.06;;;2.50;100.00
56912;BME280;42800;53.928;27.662;2023-02-13T07:20:42;100341.00;;;2.60;100.00
56912;BME280;42800;53.928;27.662;2023-02-13T07:23:09;100337.03;;;2.81;100.00
56912;BME280;42800;53.928;27.662;2023-02-13T07:25:35;100347.38;;;2.74;100.00
56912;BME280;42800;53.928;27.662;2023-02-13T07:28:02;100347.19;;;2.95;100.00
56912;BME280;42800;53.928;27.662;2023-02-13T07:30:30;100342.31;;;2.97;100.00
56912;BME280;42800;53.928;27.662;2023-02-13T07:33:00;100343.28;;;3.06;100.00
56912;BME280;42800;53.928;27.662;2023-02-13T07:35:26;100330.09;;;2.99;100.00
56912;BME280;42800;53.928;27.662;2023-02-13T07:37:53;100320.31;;;3.03;100.00
56912;BME280;42800;53.928;27.662;2023-02-13T07:40:19;100321.28;;;3.13;100.00
56912;BME280;42800;53.928;27.662;2023-02-13T07:42:45;100310.75;;;3.11;100.00
56912;BME280;42800;53.928;27.662;2023-02-13T07:45:11;100306.09;;;3.17;100.00
56912;BME280;42800;53.928;27.662;2023-02-13T07:47:40;100296.91;;;3.13;100.00
56912;BME280;42800;53.928;27.662;2023-02-13T07:50:07;100290.97;;;3.11;100.00
56912;BME280;42800;53.928;27.662;2023-02-13T07:52:35;100291.31;;;3.04;100.00
56912;BME280;42800;53.928;27.662;2023-02-13T07:55:02;100285.56;;;3.11;100.00
56912;BME280;42800;53.928;27.662;2023-02-13T07:57:28;100273.28;;;3.18;100.00
56912;BME280;42800;53.928;27.662;2023-02-13T07:59:56;100282.03;;;3.10;100.00
56912;BME280;42800;53.928;27.662;2023-02-13T08:02:22;100281.94;;;3.20;100.00
56912;BME280;42800;53.928;27.662;2023-02-13T08:04:49;100288.19;;;3.16;100.00
56912;BME280;42800;53.928;27.662;2023-02-13T08:07:16;100285.72;;;3.19;100.00
56912;BME280;42800;53.928;27.662;2023-02-13T08:09:43;100295.13;;;3.27;100.00
56912;BME280;42800;53.928;27.662;2023-02-13T08:12:27;100294.06;;;3.23;100.00
56912;BME280;42800;53.928;27.662;2023-02-13T08:14:53;100286.06;;;3.37;100.00
56912;BME280;42800;53.928;27.662;2023-02-13T08:17:20;100272.34;;;3.28;100.00
56912;BME280;42800;53.928;27.662;2023-02-13T08:19:46;100265.25;;;3.32;100.00
56912;BME280;42800;53.928;27.662;2023-02-13T08:22:13;100257.41;;;3.30;100.00
56912;BME280;42800;53.928;27.662;2023-02-13T08:24:39;100255.97;;;3.38;100.00
56912;BME280;42800;53.928;27.662;2023-02-13T08:27:05;100235.38;;;3.37;100.00
56912;BME280;42800;53.928;27.662;2023-02-13T08:29:31;100229.50;;;3.30;100.00
56912;BME280;42800;53.928;27.662;2023-02-13T08:31:59;100219.84;;;3.43;100.00
56912;BME280;42800;53.928;27.662;2023-02-13T08:34:25;100211.50;;;3.58;100.00
56912;BME280;42800;53.928;27.662;2023-02-13T08:36:51;100201.19;;;3.60;100.00
56912;BME280;42800;53.928;27.662;2023-02-13T08:39:18;100188.78;;;3.54;100.00
56912;BME280;42800;53.928;27.662;2023-02-13T08:41:44;100177.56;;;3.42;100.00
56912;BME280;42800;53.928;27.662;2023-02-13T08:44:11;100175.16;;;3.59;100.00
56912;BME280;42800;53.928;27.662;2023-02-13T08:46:37;100158.81;;;3.45;100.00
56912;BME280;42800;53.928;27.662;2023-02-13T08:49:03;100150.91;;;3.68;100.00
56912;BME280;42800;53.928;27.662;2023-02-13T08:51:29;100131.53;;;3.74;100.00
56912;BME280;42800;53.928;27.662;2023-02-13T08:53:56;100094.06;;;3.76;100.00
56912;BME280;42800;53.928;27.662;2023-02-13T08:56:23;100094.06;;;3.76;100.00
56912;BME280;42800;53.928;27.662;2023-02-13T08:58:49;100063.84;;;3.83;100.00
56912;BME280;42800;53.928;27.662;2023-02-13T09:01:16;100041.66;;;3.81;100.00
56912;BME280;42800;53.928;27.662;2023-02-13T09:03:42;100032.53;;;3.91;100.00
56912;BME280;42800;53.928;27.662;2023-02-13T09:06:08;100009.13;;;3.95;100.00
56912;BME280;42800;53.928;27.662;2023-02-13T09:08:35;99981.16;;;3.67;100.00
56912;BME280;42800;53.928;27.662;2023-02-13T09:11:03;100002.97;;;4.03;100.00
56912;BME280;42800;53.928;27.662;2023-02-13T09:13:32;99957.06;;;3.93;100.00
56912;BME280;42800;53.928;27.662;2023-02-13T09:15:59;99932.44;;;4.03;100.00
56912;BME280;42800;53.928;27.662;2023-02-13T09:18:26;99911.66;;;3.98;100.00
56912;BME280;42800;53.928;27.662;2023-02-13T09:21:00;99905.13;;;4.13;100.00
56912;BME280;42800;53.928;27.662;2023-02-13T09:23:29;99876.28;;;3.90;100.00
56912;BME280;42800;53.928;27.662;2023-02-13T09:25:58;99906.53;;;4.11;100.00
56912;BME280;42800;53.928;27.662;2023-02-13T09:28:24;99900.94;;;4.43;100.00
56912;BME280;42800;53.928;27.662;2023-02-13T09:30:51;99780.72;;;5.62;100.00
56912;BME280;42800;53.928;27.662;2023-02-13T09:33:17;99522.59;;;5.96;100.00
56912;BME280;42800;53.928;27.662;2023-02-13T09:35:43;99280.78;;;5.56;100.00
56912;BME280;42800;53.928;27.662;2023-02-13T09:38:10;99216.56;;;5.13;100.00
56912;BME280;42800;53.928;27.662;2023-02-13T09:40:40;99261.16;;;4.74;100.00
56912;BME280;42800;53.928;27.662;2023-02-13T09:43:12;99379.53;;;4.57;100.00
56912;BME280;42800;53.928;27.662;2023-02-13T09:45:40;99447.09;;;4.59;100.00
56912;BME280;42800;53.928;27.662;2023-02-13T09:48:09;99492.75;;;4.48;100.00
56912;BME280;42800;53.928;27.662;2023-02-13T09:50:40;99535.41;;;4.47;100.00
56912;BME280;42800;53.928;27.662;2023-02-13T09:53:08;99556.59;;;4.37;100.00
56912;BME280;42800;53.928;27.662;2023-02-13T09:55:45;99598.09;;;4.06;100.00
56912;BME280;42800;53.928;27.662;2023-02-13T09:58:25;99680.25;;;4.20;100.00
56912;BME280;42800;53.928;27.662;2023-02-13T10:00:59;99735.06;;;4.31;100.00
56912;BME280;42800;53.928;27.662;2023-02-13T10:03:29;99757.59;;;4.32;100.00
56912;BME280;42800;53.928;27.662;2023-02-13T10:06:04;99747.91;;;4.39;100.00
56912;BME280;42800;53.928;27.662;2023-02-13T10:08:50;99733.41;;;4.44;100.00
56912;BME280;42800;53.928;27.662;2023-02-13T10:14:12;99730.19;;;4.42;100.00
56912;BME280;42800;53.928;27.662;2023-02-13T10:16:43;99711.78;;;4.30;100.00
56912;BME280;42800;53.928;27.662;2023-02-13T10:19:17;99743.22;;;4.31;100.00
56912;BME280;42800;53.928;27.662;2023-02-13T10:21:52;99733.16;;;4.32;100.00
56912;BME280;42800;53.928;27.662;2023-02-13T10:24:28;99748.03;;;4.34;100.00
56912;BME280;42800;53.928;27.662;2023-02-13T10:26:57;99741.63;;;4.30;100.00
56912;BME280;42800;53.928;27.662;2023-02-13T10:29:35;99725.56;;;4.42;100.00
56912;BME280;42800;53.928;27.662;2023-02-13T10:32:29;99718.63;;;4.28;100.00
56912;BME280;42800;53.928;27.662;2023-02-13T10:35:02;99767.47;;;4.28;100.00
56912;BME280;42800;53.928;27.662;2023-02-13T10:37:30;99784.13;;;4.35;100.00
56912;BME280;42800;53.928;27.662;2023-02-13T10:39:56;99765.81;;;4.40;100.00
56912;BME280;42800;53.928;27.662;2023-02-13T10:42:30;99745.50;;;4.38;100.00
56912;BME280;42800;53.928;27.662;2023-02-13T10:45:12;99755.78;;;4.49;100.00
56912;BME280;42800;53.928;27.662;2023-02-13T10:48:00;99719.34;;;4.42;100.00
56912;BME280;42800;53.928;27.662;2023-02-13T10:50:36;99729.91;;;4.43;100.00
56912;BME280;42800;53.928;27.662;2023-02-13T10:53:12;99729.31;;;4.33;100.00
56912;BME280;42800;53.928;27.662;2023-02-13T10:58:49;99774.50;;;4.29;100.00
56912;BME280;42800;53.928;27.662;2023-02-13T11:01:24;99773.78;;;4.37;100.00
56912;BME280;42800;53.928;27.662;2023-02-13T11:04:03;99742.28;;;4.36;100.00
56912;BME280;42800;53.928;27.662;2023-02-13T11:06:33;99756.22;;;4.43;100.00
56912;BME280;42800;53.928;27.662;2023-02-13T11:09:00;99775.09;;;4.25;100.00
56912;BME280;42800;53.928;27.662;2023-02-13T11:11:31;99772.72;;;4.46;100.00
56912;BME280;42800;53.928;27.662;2023-02-13T11:14:08;99734.22;;;4.44;100.00
56912;BME280;42800;53.928;27.662;2023-02-13T11:16:40;99719.25;;;4.56;100.00
56912;BME280;42800;53.928;27.662;2023-02-13T11:19:16;99690.13;;;4.79;100.00
56912;BME280;42800;53.928;27.662;2023-02-13T11:21:45;99648.25;;;4.80;100.00
56912;BME280;42800;53.928;27.662;2023-02-13T11:24:18;99626.47;;;4.62;100.00
56912;BME280;42800;53.928;27.662;2023-02-13T11:26:49;99631.53;;;4.46;100.00
56912;BME280;42800;53.928;27.662;2023-02-13T11:29:20;99644.84;;;4.65;100.00
56912;BME280;42800;53.928;27.662;2023-02-13T11:32:01;99681.31;;;4.42;100.00
56912;BME280;42800;53.928;27.662;2023-02-13T11:34:30;99699.78;;;4.31;100.00
56912;BME280;42800;53.928;27.662;2023-02-13T11:37:14;99725.00;;;4.54;100.00
56912;BME280;42800;53.928;27.662;2023-02-13T11:39:43;99699.44;;;4.55;100.00
56912;BME280;42800;53.928;27.662;2023-02-13T11:42:12;99689.97;;;4.75;100.00
56912;BME280;42800;53.928;27.662;2023-02-13T11:44:41;99639.81;;;4.81;100.00
56912;BME280;42800;53.928;27.662;2023-02-13T11:47:09;99611.94;;;4.58;100.00
56912;BME280;42800;53.928;27.662;2023-02-13T11:49:36;99621.47;;;4.47;100.00
56912;BME280;42800;53.928;27.662;2023-02-13T11:52:05;99671.66;;;4.58;100.00
56912;BME280;42800;53.928;27.662;2023-02-13T11:54:35;99664.31;;;4.59;100.00
56912;BME280;42800;53.928;27.662;2023-02-13T11:57:16;99661.13;;;4.57;100.00
56912;BME280;42800;53.928;27.662;2023-02-13T11:59:46;99639.81;;;4.81;100.00
56912;BME280;42800;53.928;27.662;2023-02-13T12:02:15;99575.38;;;4.73;100.00
56912;BME280;42800;53.928;27.662;2023-02-13T12:04:42;99590.41;;;4.79;100.00
56912;BME280;42800;53.928;27.662;2023-02-13T12:07:16;99620.75;;;4.72;100.00
56912;BME280;42800;53.928;27.662;2023-02-13T12:09:46;99634.16;;;4.60;100.00
56912;BME280;42800;53.928;27.662;2023-02-13T12:12:17;99630.81;;;4.72;100.00
56912;BME280;42800;53.928;27.662;2023-02-13T12:14:45;99627.81;;;4.74;100.00
56912;BME280;42800;53.928;27.662;2023-02-13T12:17:14;99602.53;;;4.64;100.00
56912;BME280;42800;53.928;27.662;2023-02-13T12:19:43;99636.59;;;4.70;100.00
56912;BME280;42800;53.928;27.662;2023-02-13T12:22:20;99623.63;;;4.76;100.00
56912;BME280;42800;53.928;27.662;2023-02-13T12:25:07;99621.09;;;4.80;100.00
56912;BME280;42800;53.928;27.662;2023-02-13T12:27:43;99619.44;;;5.10;100.00
56912;BME280;42800;53.928;27.662;2023-02-13T12:30:33;99554.94;;;4.76;100.00
56912;BME280;42800;53.928;27.662;2023-02-13T12:33:14;99522.03;;;4.77;100.00
56912;BME280;42800;53.928;27.662;2023-02-13T12:35:51;99527.47;;;4.77;100.00
56912;BME280;42800;53.928;27.662;2023-02-13T12:38:34;99537.81;;;4.66;100.00
56912;BME280;42800;53.928;27.662;2023-02-13T12:41:14;99560.66;;;4.57;100.00
56912;BME280;42800;53.928;27.662;2023-02-13T12:46:44;99586.47;;;4.45;100.00
56912;BME280;42800;53.928;27.662;2023-02-13T12:49:33;99596.09;;;4.52;100.00
56912;BME280;42800;53.928;27.662;2023-02-13T12:52:16;99612.53;;;4.46;100.00
56912;BME280;42800;53.928;27.662;2023-02-13T12:54:57;99609.81;;;4.46;100.00
56912;BME280;42800;53.928;27.662;2023-02-13T12:57:38;99602.03;;;4.54;100.00
56912;BME280;42800;53.928;27.662;2023-02-13T13:00:15;99596.53;;;4.45;100.00
56912;BME280;42800;53.928;27.662;2023-02-13T13:03:06;99567.00;;;4.43;100.00
56912;BME280;42800;53.928;27.662;2023-02-13T13:05:50;99570.56;;;4.61;100.00
56912;BME280;42800;53.928;27.662;2023-02-13T13:08:31;99549.63;;;4.62;100.00
56912;BME280;42800;53.928;27.662;2023-02-13T13:11:16;99556.19;;;4.61;100.00
56912;BME280;42800;53.928;27.662;2023-02-13T13:13:54;99545.78;;;4.54;100.00
56912;BME280;42800;53.928;27.662;2023-02-13T13:16:30;99515.47;;;4.69;100.00
56912;BME280;42800;53.928;27.662;2023-02-13T13:19:05;99508.59;;;4.72;100.00
56912;BME280;42800;53.928;27.662;2023-02-13T13:21:40;99483.38;;;4.71;100.00